sensor_id;sensor_type;location;lat;lon;timestamp;temperature;humidity
61207;DHT22;47070;49.212;8.084;2022-12-18T00:00:47;-3.00;99.90
61207;DHT22;47070;49.212;8.084;2022-12-18T00:04:47;-3.10;99.90
61207;DHT22;47070;49.212;8.084;2022-12-18T00:08:48;-3.10;99.90
61207;DHT22;47070;49.212;8.084;2022-12-18T00:12:48;-3.00;99.90
61207;DHT22;47070;49.212;8.084;2022-12-18T00:16:49;-2.70;99.90
61207;DHT22;47070;49.212;8.084;2022-12-18T00:20:49;-2.10;99.90
61207;DHT22;47070;49.212;8.084;2022-12-18T00:24:50;-2.70;99.90
61207;DHT22;47070;49.212;8.084;2022-12-18T00:28:50;-2.30;99.90
61207;DHT22;47070;49.212;8.084;2022-12-18T00:32:51;-2.70;99.90
61207;DHT22;47070;49.212;8.084;2022-12-18T00:36:52;-2.80;99.90
61207;DHT22;47070;49.212;8.084;2022-12-18T00:40:52;-2.60;99.90
61207;DHT22;47070;49.212;8.084;2022-12-18T00:44:53;-2.70;99.90
61207;DHT22;47070;49.212;8.084;2022-12-18T00:48:53;-2.70;99.90
61207;DHT22;47070;49.212;8.084;2022-12-18T00:52:53;-2.80;99.90
61207;DHT22;47070;49.212;8.084;2022-12-18T00:56:54;-2.90;99.90
61207;DHT22;47070;49.212;8.084;2022-12-18T01:00:55;-2.70;99.90
61207;DHT22;47070;49.212;8.084;2022-12-18T01:04:55;-2.80;99.90
61207;DHT22;47070;49.212;8.084;2022-12-18T01:08:56;-2.60;99.90
61207;DHT22;47070;49.212;8.084;2022-12-18T01:12:56;-2.50;99.90
61207;DHT22;47070;49.212;8.084;2022-12-18T01:16:57;-2.20;99.90
61207;DHT22;47070;49.212;8.084;2022-12-18T01:20:57;-2.00;99.90
61207;DHT22;47070;49.212;8.084;2022-12-18T01:24:58;-2.30;99.90
61207;DHT22;47070;49.212;8.084;2022-12-18T01:28:58;-2.00;99.90
61207;DHT22;47070;49.212;8.084;2022-12-18T01:32:58;-2.20;99.90
61207;DHT22;47070;49.212;8.084;2022-12-18T01:36:59;-2.00;99.90
61207;DHT22;47070;49.212;8.084;2022-12-18T01:41:02;-2.30;99.90
61207;DHT22;47070;49.212;8.084;2022-12-18T01:49:12;-2.10;99.90
61207;DHT22;47070;49.212;8.084;2022-12-18T01:53:14;-1.60;99.90
61207;DHT22;47070;49.212;8.084;2022-12-18T01:57:14;-1.90;99.90
61207;DHT22;47070;49.212;8.084;2022-12-18T02:01:15;-2.10;99.90
61207;DHT22;47070;49.212;8.084;2022-12-18T02:05:27;-1.90;99.90
61207;DHT22;47070;49.212;8.084;2022-12-18T02:09:31;-2.00;99.90
61207;DHT22;47070;49.212;8.084;2022-12-18T02:13:41;-2.00;99.90
61207;DHT22;47070;49.212;8.084;2022-12-18T02:18:01;-1.10;99.90
61207;DHT22;47070;49.212;8.084;2022-12-18T02:22:13;-1.80;99.90
61207;DHT22;47070;49.212;8.084;2022-12-18T02:30:19;-2.00;99.90
61207;DHT22;47070;49.212;8.084;2022-12-18T02:34:21;-2.10;99.90
61207;DHT22;47070;49.212;8.084;2022-12-18T02:38:23;-2.00;99.90
61207;DHT22;47070;49.212;8.084;2022-12-18T02:42:24;-2.00;99.90
61207;DHT22;47070;49.212;8.084;2022-12-18T02:46:26;-2.50;99.90
61207;DHT22;47070;49.212;8.084;2022-12-18T02:50:33;-2.30;99.90
61207;DHT22;47070;49.212;8.084;2022-12-18T03:06:56;-1.00;99.90
61207;DHT22;47070;49.212;8.084;2022-12-18T03:10:58;-1.90;99.90
61207;DHT22;47070;49.212;8.084;2022-12-18T03:19:05;-2.20;99.90
61207;DHT22;47070;49.212;8.084;2022-12-18T03:23:09;-2.40;99.90
61207;DHT22;47070;49.212;8.084;2022-12-18T03:27:11;-2.80;99.90
61207;DHT22;47070;49.212;8.084;2022-12-18T03:31:14;-1.40;99.90
61207;DHT22;47070;49.212;8.084;2022-12-18T03:35:19;-1.80;99.90
61207;DHT22;47070;49.212;8.084;2022-12-18T03:39:21;-1.60;99.90
61207;DHT22;47070;49.212;8.084;2022-12-18T03:43:35;-2.20;99.90
61207;DHT22;47070;49.212;8.084;2022-12-18T03:47:52;-2.10;99.90
61207;DHT22;47070;49.212;8.084;2022-12-18T03:52:04;-2.20;99.90
61207;DHT22;47070;49.212;8.084;2022-12-18T03:56:06;-2.30;99.90
61207;DHT22;47070;49.212;8.084;2022-12-18T04:00:08;-2.10;99.90
61207;DHT22;47070;49.212;8.084;2022-12-18T04:04:09;-2.20;99.90
61207;DHT22;47070;49.212;8.084;2022-12-18T04:08:11;-2.30;99.90
61207;DHT22;47070;49.212;8.084;2022-12-18T04:12:12;-2.30;99.90
61207;DHT22;47070;49.212;8.084;2022-12-18T04:16:12;-2.30;99.90
61207;DHT22;47070;49.212;8.084;2022-12-18T04:20:13;-1.70;99.90
61207;DHT22;47070;49.212;8.084;2022-12-18T04:24:13;-1.80;99.90
61207;DHT22;47070;49.212;8.084;2022-12-18T04:28:13;-1.70;99.90
61207;DHT22;47070;49.212;8.084;2022-12-18T04:32:14;-1.10;99.90
61207;DHT22;47070;49.212;8.084;2022-12-18T04:36:14;-1.70;99.90
61207;DHT22;47070;49.212;8.084;2022-12-18T04:40:15;-1.70;99.90
61207;DHT22;47070;49.212;8.084;2022-12-18T04:44:15;-1.70;99.90
61207;DHT22;47070;49.212;8.084;2022-12-18T04:48:16;-1.10;99.90
61207;DHT22;47070;49.212;8.084;2022-12-18T04:52:16;-1.70;99.90
61207;DHT22;47070;49.212;8.084;2022-12-18T04:56:17;-1.40;99.90
61207;DHT22;47070;49.212;8.084;2022-12-18T05:00:17;-1.80;99.90
61207;DHT22;47070;49.212;8.084;2022-12-18T05:04:17;-1.80;99.90
61207;DHT22;47070;49.212;8.084;2022-12-18T05:08:18;-2.10;99.90
61207;DHT22;47070;49.212;8.084;2022-12-18T05:12:18;-2.30;99.90
61207;DHT22;47070;49.212;8.084;2022-12-18T05:16:19;-2.50;99.90
61207;DHT22;47070;49.212;8.084;2022-12-18T05:20:19;-2.70;99.90
61207;DHT22;47070;49.212;8.084;2022-12-18T05:24:20;-2.50;99.90
61207;DHT22;47070;49.212;8.084;2022-12-18T05:28:20;-2.50;99.90
61207;DHT22;47070;49.212;8.084;2022-12-18T05:32:21;-1.80;99.90
61207;DHT22;47070;49.212;8.084;2022-12-18T05:36:22;-2.30;99.90
61207;DHT22;47070;49.212;8.084;2022-12-18T05:40:22;-2.60;99.90
61207;DHT22;47070;49.212;8.084;2022-12-18T05:44:22;-2.10;99.90
61207;DHT22;47070;49.212;8.084;2022-12-18T05:48:23;-2.40;99.90
61207;DHT22;47070;49.212;8.084;2022-12-18T05:52:23;-2.50;99.90
61207;DHT22;47070;49.212;8.084;2022-12-18T05:56:24;-2.70;99.90
61207;DHT22;47070;49.212;8.084;2022-12-18T06:00:25;-2.70;99.90
61207;DHT22;47070;49.212;8.084;2022-12-18T06:04:26;-2.60;99.90
61207;DHT22;47070;49.212;8.084;2022-12-18T06:08:27;-2.40;99.90
61207;DHT22;47070;49.212;8.084;2022-12-18T06:12:28;-2.70;99.90
61207;DHT22;47070;49.212;8.084;2022-12-18T06:16:28;-2.30;99.90
61207;DHT22;47070;49.212;8.084;2022-12-18T06:20:32;-2.40;99.90
61207;DHT22;47070;49.212;8.084;2022-12-18T06:24:32;-2.40;99.90
61207;DHT22;47070;49.212;8.084;2022-12-18T06:28:33;-2.70;99.90
61207;DHT22;47070;49.212;8.084;2022-12-18T06:32:33;-2.50;99.90
61207;DHT22;47070;49.212;8.084;2022-12-18T06:36:34;-2.70;99.90
61207;DHT22;47070;49.212;8.084;2022-12-18T06:40:35;-2.40;99.90
61207;DHT22;47070;49.212;8.084;2022-12-18T06:44:36;-2.30;99.90
61207;DHT22;47070;49.212;8.084;2022-12-18T06:48:37;-2.60;99.90
61207;DHT22;47070;49.212;8.084;2022-12-18T06:52:38;-2.60;99.90
61207;DHT22;47070;49.212;8.084;2022-12-18T06:56:39;-2.80;99.90
61207;DHT22;47070;49.212;8.084;2022-12-18T07:00:40;-2.50;99.90
61207;DHT22;47070;49.212;8.084;2022-12-18T07:04:40;-2.40;99.90
61207;DHT22;47070;49.212;8.084;2022-12-18T07:08:41;-2.40;99.90
61207;DHT22;47070;49.212;8.084;2022-12-18T07:12:41;-2.40;99.90
61207;DHT22;47070;49.212;8.084;2022-12-18T07:16:42;-2.60;99.90
61207;DHT22;47070;49.212;8.084;2022-12-18T07:20:42;-2.50;99.90
61207;DHT22;47070;49.212;8.084;2022-12-18T07:24:42;-2.80;99.90
61207;DHT22;47070;49.212;8.084;2022-12-18T07:28:43;-2.70;99.90
61207;DHT22;47070;49.212;8.084;2022-12-18T07:32:44;-2.80;99.90
61207;DHT22;47070;49.212;8.084;2022-12-18T07:36:44;-2.80;99.90
61207;DHT22;47070;49.212;8.084;2022-12-18T07:40:44;-2.90;99.90
61207;DHT22;47070;49.212;8.084;2022-12-18T07:44:45;-3.20;99.90
61207;DHT22;47070;49.212;8.084;2022-12-18T07:48:45;-3.40;99.90
61207;DHT22;47070;49.212;8.084;2022-12-18T07:52:46;-3.00;99.90
61207;DHT22;47070;49.212;8.084;2022-12-18T07:56:46;-3.00;99.90
61207;DHT22;47070;49.212;8.084;2022-12-18T08:00:47;-2.90;99.90
61207;DHT22;47070;49.212;8.084;2022-12-18T08:04:47;-2.90;99.90
61207;DHT22;47070;49.212;8.084;2022-12-18T08:08:48;-2.70;99.90
61207;DHT22;47070;49.212;8.084;2022-12-18T08:12:49;-2.70;99.90
61207;DHT22;47070;49.212;8.084;2022-12-18T08:16:49;-2.90;99.90
61207;DHT22;47070;49.212;8.084;2022-12-18T08:20:50;-2.90;99.90
61207;DHT22;47070;49.212;8.084;2022-12-18T08:24:50;-3.20;99.90
61207;DHT22;47070;49.212;8.084;2022-12-18T08:28:51;-3.00;99.90
61207;DHT22;47070;49.212;8.084;2022-12-18T08:32:51;-2.70;99.90
61207;DHT22;47070;49.212;8.084;2022-12-18T08:36:53;-2.90;99.90
61207;DHT22;47070;49.212;8.084;2022-12-18T08:40:58;-2.60;99.90
61207;DHT22;47070;49.212;8.084;2022-12-18T08:44:59;-2.80;99.90
61207;DHT22;47070;49.212;8.084;2022-12-18T08:48:59;-1.80;99.90
61207;DHT22;47070;49.212;8.084;2022-12-18T08:53:00;-1.70;99.90
61207;DHT22;47070;49.212;8.084;2022-12-18T08:57:00;-1.70;99.90
61207;DHT22;47070;49.212;8.084;2022-12-18T09:01:02;-0.90;99.90
61207;DHT22;47070;49.212;8.084;2022-12-18T09:05:03;-0.80;99.90
61207;DHT22;47070;49.212;8.084;2022-12-18T09:09:04;-0.50;99.90
61207;DHT22;47070;49.212;8.084;2022-12-18T09:13:04;-0.30;99.90
61207;DHT22;47070;49.212;8.084;2022-12-18T09:17:05;-0.70;99.90
61207;DHT22;47070;49.212;8.084;2022-12-18T09:21:09;-1.10;99.90
61207;DHT22;47070;49.212;8.084;2022-12-18T09:25:09;-1.20;99.90
61207;DHT22;47070;49.212;8.084;2022-12-18T09:29:10;-1.30;99.90
61207;DHT22;47070;49.212;8.084;2022-12-18T09:33:10;-1.40;99.90
61207;DHT22;47070;49.212;8.084;2022-12-18T09:37:11;-1.50;99.90
61207;DHT22;47070;49.212;8.084;2022-12-18T09:41:32;-1.30;99.90
61207;DHT22;47070;49.212;8.084;2022-12-18T09:45:43;-1.60;99.90
61207;DHT22;47070;49.212;8.084;2022-12-18T09:49:46;-1.50;99.90
61207;DHT22;47070;49.212;8.084;2022-12-18T09:53:55;-1.40;99.90
61207;DHT22;47070;49.212;8.084;2022-12-18T09:58:00;-1.10;99.90
61207;DHT22;47070;49.212;8.084;2022-12-18T10:02:19;-1.50;99.90
61207;DHT22;47070;49.212;8.084;2022-12-18T10:10:24;-1.60;99.90
61207;DHT22;47070;49.212;8.084;2022-12-18T10:14:29;-1.60;99.90
61207;DHT22;47070;49.212;8.084;2022-12-18T10:22:56;-1.50;99.90
61207;DHT22;47070;49.212;8.084;2022-12-18T10:26:59;-1.20;99.90
61207;DHT22;47070;49.212;8.084;2022-12-18T10:31:05;-1.30;99.90
61207;DHT22;47070;49.212;8.084;2022-12-18T10:35:08;-1.10;99.90
61207;DHT22;47070;49.212;8.084;2022-12-18T10:39:19;-0.70;99.90
61207;DHT22;47070;49.212;8.084;2022-12-18T10:43:20;-1.00;99.90
61207;DHT22;47070;49.212;8.084;2022-12-18T10:47:21;-1.30;99.90
61207;DHT22;47070;49.212;8.084;2022-12-18T10:55:31;0.10;99.90
61207;DHT22;47070;49.212;8.084;2022-12-18T10:59:32;-0.40;99.90
61207;DHT22;47070;49.212;8.084;2022-12-18T11:07:50;-0.70;99.90
61207;DHT22;47070;49.212;8.084;2022-12-18T11:11:51;-0.80;99.90
61207;DHT22;47070;49.212;8.084;2022-12-18T11:15:53;-0.90;99.90
61207;DHT22;47070;49.212;8.084;2022-12-18T11:19:55;-0.90;99.90
61207;DHT22;47070;49.212;8.084;2022-12-18T11:23:56;-0.40;99.90
61207;DHT22;47070;49.212;8.084;2022-12-18T11:27:58;0.00;99.90
61207;DHT22;47070;49.212;8.084;2022-12-18T11:36:15;-0.50;99.90
61207;DHT22;47070;49.212;8.084;2022-12-18T11:40:17;-0.30;99.90
61207;DHT22;47070;49.212;8.084;2022-12-18T11:44:22;-0.80;99.90
61207;DHT22;47070;49.212;8.084;2022-12-18T11:48:25;-0.60;99.90
61207;DHT22;47070;49.212;8.084;2022-12-18T11:52:35;-0.80;99.90
61207;DHT22;47070;49.212;8.084;2022-12-18T11:56:39;-1.00;99.90
61207;DHT22;47070;49.212;8.084;2022-12-18T12:00:43;-0.70;99.90
61207;DHT22;47070;49.212;8.084;2022-12-18T12:08:54;-1.20;99.90
61207;DHT22;47070;49.212;8.084;2022-12-18T12:17:21;-0.80;99.90
61207;DHT22;47070;49.212;8.084;2022-12-18T12:21:32;-0.60;99.90
61207;DHT22;47070;49.212;8.084;2022-12-18T12:25:40;-1.00;99.90
61207;DHT22;47070;49.212;8.084;2022-12-18T12:38:28;-0.50;99.90
61207;DHT22;47070;49.212;8.084;2022-12-18T12:42:32;-0.30;99.90
61207;DHT22;47070;49.212;8.084;2022-12-18T12:46:52;-0.40;99.90
61207;DHT22;47070;49.212;8.084;2022-12-18T12:50:54;-0.50;99.90
61207;DHT22;47070;49.212;8.084;2022-12-18T12:54:55;-0.60;99.90
61207;DHT22;47070;49.212;8.084;2022-12-18T12:59:01;-0.80;99.90
61207;DHT22;47070;49.212;8.084;2022-12-18T13:03:49;-0.80;99.90
61207;DHT22;47070;49.212;8.084;2022-12-18T13:11:48;-0.40;99.90
61207;DHT22;47070;49.212;8.084;2022-12-18T13:16:07;-0.40;99.90
61207;DHT22;47070;49.212;8.084;2022-12-18T13:20:09;-0.40;99.90
61207;DHT22;47070;49.212;8.084;2022-12-18T13:24:24;-0.30;99.90
61207;DHT22;47070;49.212;8.084;2022-12-18T13:32:48;-0.50;99.90
61207;DHT22;47070;49.212;8.084;2022-12-18T13:36:50;-0.40;99.90
61207;DHT22;47070;49.212;8.084;2022-12-18T13:44:50;-0.40;99.90
61207;DHT22;47070;49.212;8.084;2022-12-18T13:48:59;-0.40;99.90
61207;DHT22;47070;49.212;8.084;2022-12-18T13:53:01;-0.40;99.90
61207;DHT22;47070;49.212;8.084;2022-12-18T13:57:03;-0.40;99.90
61207;DHT22;47070;49.212;8.084;2022-12-18T14:01:05;-0.40;99.90
61207;DHT22;47070;49.212;8.084;2022-12-18T14:05:20;-0.20;99.90
61207;DHT22;47070;49.212;8.084;2022-12-18T14:09:23;-0.10;99.90
61207;DHT22;47070;49.212;8.084;2022-12-18T14:13:30;0.00;99.90
61207;DHT22;47070;49.212;8.084;2022-12-18T14:17:31;0.10;99.90
61207;DHT22;47070;49.212;8.084;2022-12-18T14:21:31;0.10;99.90
61207;DHT22;47070;49.212;8.084;2022-12-18T14:25:35;-0.30;99.90
61207;DHT22;47070;49.212;8.084;2022-12-18T14:29:35;-0.30;99.90
61207;DHT22;47070;49.212;8.084;2022-12-18T14:33:36;-0.30;99.90
61207;DHT22;47070;49.212;8.084;2022-12-18T14:37:38;-0.10;99.90
61207;DHT22;47070;49.212;8.084;2022-12-18T14:41:38;1.20;99.90
61207;DHT22;47070;49.212;8.084;2022-12-18T14:45:42;-0.10;99.90
61207;DHT22;47070;49.212;8.084;2022-12-18T14:49:43;0.00;99.90
61207;DHT22;47070;49.212;8.084;2022-12-18T14:53:44;0.00;99.90
61207;DHT22;47070;49.212;8.084;2022-12-18T14:57:45;0.10;99.90
61207;DHT22;47070;49.212;8.084;2022-12-18T15:02:15;0.00;99.90
61207;DHT22;47070;49.212;8.084;2022-12-18T15:06:24;-0.10;99.90
61207;DHT22;47070;49.212;8.084;2022-12-18T15:10:30;-0.10;99.90
61207;DHT22;47070;49.212;8.084;2022-12-18T15:14:32;-0.10;99.90
61207;DHT22;47070;49.212;8.084;2022-12-18T15:18:33;-0.20;99.90
61207;DHT22;47070;49.212;8.084;2022-12-18T15:22:35;-0.30;99.90
61207;DHT22;47070;49.212;8.084;2022-12-18T15:26:36;-0.30;99.90
61207;DHT22;47070;49.212;8.084;2022-12-18T15:30:37;-0.40;99.90
61207;DHT22;47070;49.212;8.084;2022-12-18T15:34:38;-0.50;99.90
61207;DHT22;47070;49.212;8.084;2022-12-18T15:38:38;-0.50;99.90
61207;DHT22;47070;49.212;8.084;2022-12-18T15:42:39;-0.40;99.90
61207;DHT22;47070;49.212;8.084;2022-12-18T15:46:58;-0.30;99.90
61207;DHT22;47070;49.212;8.084;2022-12-18T15:50:58;-0.20;99.90
61207;DHT22;47070;49.212;8.084;2022-12-18T15:54:58;-0.20;99.90
61207;DHT22;47070;49.212;8.084;2022-12-18T15:59:19;-0.20;99.90
61207;DHT22;47070;49.212;8.084;2022-12-18T16:03:22;-0.20;99.90
61207;DHT22;47070;49.212;8.084;2022-12-18T16:07:26;0.00;99.90
61207;DHT22;47070;49.212;8.084;2022-12-18T16:11:27;0.00;99.90
61207;DHT22;47070;49.212;8.084;2022-12-18T16:15:43;0.10;99.90
61207;DHT22;47070;49.212;8.084;2022-12-18T16:19:43;0.10;99.90
61207;DHT22;47070;49.212;8.084;2022-12-18T16:23:44;0.20;99.90
61207;DHT22;47070;49.212;8.084;2022-12-18T16:27:44;0.20;99.90
61207;DHT22;47070;49.212;8.084;2022-12-18T16:31:45;0.30;99.90
61207;DHT22;47070;49.212;8.084;2022-12-18T16:35:50;0.40;99.90
61207;DHT22;47070;49.212;8.084;2022-12-18T16:39:51;0.30;99.90
61207;DHT22;47070;49.212;8.084;2022-12-18T16:43:51;0.30;99.90
61207;DHT22;47070;49.212;8.084;2022-12-18T16:47:52;0.30;99.90
61207;DHT22;47070;49.212;8.084;2022-12-18T16:51:52;0.50;99.90
61207;DHT22;47070;49.212;8.084;2022-12-18T16:55:55;0.30;99.90
61207;DHT22;47070;49.212;8.084;2022-12-18T16:59:56;0.30;99.90
61207;DHT22;47070;49.212;8.084;2022-12-18T17:03:58;0.50;99.90
61207;DHT22;47070;49.212;8.084;2022-12-18T17:07:59;0.40;99.90
61207;DHT22;47070;49.212;8.084;2022-12-18T17:11:59;0.30;99.90
61207;DHT22;47070;49.212;8.084;2022-12-18T17:16:03;0.30;99.90
61207;DHT22;47070;49.212;8.084;2022-12-18T17:20:04;0.30;99.90
61207;DHT22;47070;49.212;8.084;2022-12-18T17:24:05;0.20;99.90
61207;DHT22;47070;49.212;8.084;2022-12-18T17:28:05;0.10;99.90
61207;DHT22;47070;49.212;8.084;2022-12-18T17:32:05;-0.10;99.90
61207;DHT22;47070;49.212;8.084;2022-12-18T17:36:06;0.00;99.90
61207;DHT22;47070;49.212;8.084;2022-12-18T17:40:07;-0.20;99.90
61207;DHT22;47070;49.212;8.084;2022-12-18T17:44:07;0.10;99.90
61207;DHT22;47070;49.212;8.084;2022-12-18T17:48:08;0.10;99.90
61207;DHT22;47070;49.212;8.084;2022-12-18T17:52:08;0.20;99.90
61207;DHT22;47070;49.212;8.084;2022-12-18T17:56:13;0.20;99.90
61207;DHT22;47070;49.212;8.084;2022-12-18T18:00:14;0.20;99.90
61207;DHT22;47070;49.212;8.084;2022-12-18T18:04:14;0.00;99.90
61207;DHT22;47070;49.212;8.084;2022-12-18T18:08:15;0.00;99.90
61207;DHT22;47070;49.212;8.084;2022-12-18T18:12:15;0.10;99.90
61207;DHT22;47070;49.212;8.084;2022-12-18T18:16:38;-0.10;99.90
61207;DHT22;47070;49.212;8.084;2022-12-18T18:20:39;0.00;99.90
61207;DHT22;47070;49.212;8.084;2022-12-18T18:24:40;-0.20;99.90
61207;DHT22;47070;49.212;8.084;2022-12-18T18:28:42;0.20;99.90
61207;DHT22;47070;49.212;8.084;2022-12-18T18:32:43;0.20;99.90
61207;DHT22;47070;49.212;8.084;2022-12-18T18:36:43;-0.10;99.90
61207;DHT22;47070;49.212;8.084;2022-12-18T18:40:45;0.10;99.90
61207;DHT22;47070;49.212;8.084;2022-12-18T18:44:45;0.20;99.90
61207;DHT22;47070;49.212;8.084;2022-12-18T18:48:46;0.50;99.90
61207;DHT22;47070;49.212;8.084;2022-12-18T18:52:46;0.40;99.90
61207;DHT22;47070;49.212;8.084;2022-12-18T18:56:47;0.40;99.90
61207;DHT22;47070;49.212;8.084;2022-12-18T19:00:57;0.70;99.90
61207;DHT22;47070;49.212;8.084;2022-12-18T19:04:58;0.70;99.90
61207;DHT22;47070;49.212;8.084;2022-12-18T19:09:00;0.60;99.90
61207;DHT22;47070;49.212;8.084;2022-12-18T19:13:00;0.70;99.90
61207;DHT22;47070;49.212;8.084;2022-12-18T19:17:19;0.70;99.90
61207;DHT22;47070;49.212;8.084;2022-12-18T19:21:20;0.70;99.90
61207;DHT22;47070;49.212;8.084;2022-12-18T19:25:21;0.90;99.90
61207;DHT22;47070;49.212;8.084;2022-12-18T19:29:21;0.80;99.90
61207;DHT22;47070;49.212;8.084;2022-12-18T19:33:22;0.90;99.90
61207;DHT22;47070;49.212;8.084;2022-12-18T19:37:24;1.00;99.90
61207;DHT22;47070;49.212;8.084;2022-12-18T19:41:24;0.60;99.90
61207;DHT22;47070;49.212;8.084;2022-12-18T19:45:25;0.80;99.90
61207;DHT22;47070;49.212;8.084;2022-12-18T19:49:26;0.90;99.90
61207;DHT22;47070;49.212;8.084;2022-12-18T19:53:26;1.00;99.90
61207;DHT22;47070;49.212;8.084;2022-12-18T19:57:27;1.10;99.90
61207;DHT22;47070;49.212;8.084;2022-12-18T20:01:28;1.10;99.90
61207;DHT22;47070;49.212;8.084;2022-12-18T20:05:28;1.20;99.90
61207;DHT22;47070;49.212;8.084;2022-12-18T20:09:29;1.30;99.90
61207;DHT22;47070;49.212;8.084;2022-12-18T20:13:29;1.20;99.90
61207;DHT22;47070;49.212;8.084;2022-12-18T20:17:30;1.20;99.90
61207;DHT22;47070;49.212;8.084;2022-12-18T20:21:30;1.20;99.90
61207;DHT22;47070;49.212;8.084;2022-12-18T20:25:31;1.30;99.90
61207;DHT22;47070;49.212;8.084;2022-12-18T20:29:31;1.20;99.90
61207;DHT22;47070;49.212;8.084;2022-12-18T20:33:32;1.40;99.90
61207;DHT22;47070;49.212;8.084;2022-12-18T20:37:33;1.30;99.90
61207;DHT22;47070;49.212;8.084;2022-12-18T20:41:33;1.30;99.90
61207;DHT22;47070;49.212;8.084;2022-12-18T20:45:34;1.30;99.90
61207;DHT22;47070;49.212;8.084;2022-12-18T20:49:36;1.30;99.90
61207;DHT22;47070;49.212;8.084;2022-12-18T20:53:36;1.30;99.90
61207;DHT22;47070;49.212;8.084;2022-12-18T20:57:37;1.40;99.90
61207;DHT22;47070;49.212;8.084;2022-12-18T21:01:38;1.40;99.90
61207;DHT22;47070;49.212;8.084;2022-12-18T21:05:38;1.50;99.90
61207;DHT22;47070;49.212;8.084;2022-12-18T21:09:39;1.50;99.90
61207;DHT22;47070;49.212;8.084;2022-12-18T21:13:39;1.60;99.90
61207;DHT22;47070;49.212;8.084;2022-12-18T21:17:40;1.60;99.90
61207;DHT22;47070;49.212;8.084;2022-12-18T21:21:40;1.60;99.90
61207;DHT22;47070;49.212;8.084;2022-12-18T21:25:42;1.70;99.90
61207;DHT22;47070;49.212;8.084;2022-12-18T21:29:42;1.60;99.90
61207;DHT22;47070;49.212;8.084;2022-12-18T21:33:43;1.50;99.90
61207;DHT22;47070;49.212;8.084;2022-12-18T21:37:43;1.50;99.90
61207;DHT22;47070;49.212;8.084;2022-12-18T21:41:44;1.60;99.90
61207;DHT22;47070;49.212;8.084;2022-12-18T21:46:03;1.60;99.90
61207;DHT22;47070;49.212;8.084;2022-12-18T21:50:04;1.70;99.90
61207;DHT22;47070;49.212;8.084;2022-12-18T21:54:04;1.50;99.90
61207;DHT22;47070;49.212;8.084;2022-12-18T21:58:05;1.60;99.90
61207;DHT22;47070;49.212;8.084;2022-12-18T22:02:10;1.50;99.90
61207;DHT22;47070;49.212;8.084;2022-12-18T22:06:11;1.60;99.90
61207;DHT22;47070;49.212;8.084;2022-12-18T22:10:11;1.60;99.90
61207;DHT22;47070;49.212;8.084;2022-12-18T22:14:12;1.60;99.90
61207;DHT22;47070;49.212;8.084;2022-12-18T22:18:13;1.60;99.90
61207;DHT22;47070;49.212;8.084;2022-12-18T22:22:14;1.60;99.90
61207;DHT22;47070;49.212;8.084;2022-12-18T22:26:15;1.60;99.90
61207;DHT22;47070;49.212;8.084;2022-12-18T22:30:15;1.70;99.90
61207;DHT22;47070;49.212;8.084;2022-12-18T22:34:15;1.70;99.90
61207;DHT22;47070;49.212;8.084;2022-12-18T22:38:16;1.80;99.90
61207;DHT22;47070;49.212;8.084;2022-12-18T22:42:16;1.70;99.90
61207;DHT22;47070;49.212;8.084;2022-12-18T22:46:17;1.70;99.90
61207;DHT22;47070;49.212;8.084;2022-12-18T22:50:21;1.70;99.90
61207;DHT22;47070;49.212;8.084;2022-12-18T22:54:22;1.70;99.90
61207;DHT22;47070;49.212;8.084;2022-12-18T22:58:22;1.70;99.90
61207;DHT22;47070;49.212;8.084;2022-12-18T23:02:22;1.70;99.90
61207;DHT22;47070;49.212;8.084;2022-12-18T23:06:24;1.70;99.90
61207;DHT22;47070;49.212;8.084;2022-12-18T23:10:25;1.70;99.90
61207;DHT22;47070;49.212;8.084;2022-12-18T23:14:26;1.70;99.90
61207;DHT22;47070;49.212;8.084;2022-12-18T23:18:26;1.70;99.90
61207;DHT22;47070;49.212;8.084;2022-12-18T23:22:28;1.70;99.90
61207;DHT22;47070;49.212;8.084;2022-12-18T23:26:28;1.60;99.90
61207;DHT22;47070;49.212;8.084;2022-12-18T23:30:30;1.70;99.90
61207;DHT22;47070;49.212;8.084;2022-12-18T23:34:30;1.60;99.90
61207;DHT22;47070;49.212;8.084;2022-12-18T23:38:31;1.60;99.90
61207;DHT22;47070;49.212;8.084;2022-12-18T23:42:32;1.70;99.90
61207;DHT22;47070;49.212;8.084;2022-12-18T23:46:33;1.60;99.90
61207;DHT22;47070;49.212;8.084;2022-12-18T23:50:35;1.50;99.90
61207;DHT22;47070;49.212;8.084;2022-12-18T23:54:35;1.60;99.90
61207;DHT22;47070;49.212;8.084;2022-12-18T23:58:36;1.70;99.90
